UAL3936 KIAD-KORD
Flight info
| Callsign | UAL3936 |
|---|---|
| Flight time | N/A |
| Altitude | 30000 |
| Route | BUNZZ3 RAMAY Q72 HACKS J149 ROD WATSN4 |
| Aircraft | B38M/M-SDE1FGHILORVWXY/HB1 |
Departure
| Time | N/A |
|---|---|
| Airport | Washington Dulles International Airport (KIAD) |
Arrival
| Time | 2026-05-05 17:35 |
|---|---|
| Airport | Chicago O'Hare International Airport (KORD) |
| Time | Latitude | Longitude | Altitude | Speed | Heading |
|---|---|---|---|---|---|
| 2026-05-05 17:35 | 41.98862 | -87.89485 | 671 ft | 9 kts | 339° |
| 2026-05-05 17:35 | 41.98922 | -87.89494 | 672 ft | 0 kts | 356° |
| 2026-05-05 17:37 | 41.98924 | -87.89495 | 672 ft | 1 kts | 357° |
| 2026-05-05 17:37 | 41.98967 | -87.89494 | 672 ft | 8 kts | 4° |
| 2026-05-05 17:37 | 41.98998 | -87.89432 | 673 ft | 9 kts | 87° |
| 2026-05-05 17:38 | 41.98999 | -87.89336 | 673 ft | 11 kts | 89° |
| 2026-05-05 17:38 | 41.98998 | -87.89222 | 673 ft | 13 kts | 90° |
| 2026-05-05 17:38 | 41.98994 | -87.89089 | 673 ft | 14 kts | 104° |
| 2026-05-05 17:38 | 41.98939 | -87.89039 | 674 ft | 9 kts | 182° |
| 2026-05-05 17:39 | 41.98851 | -87.89044 | 676 ft | 18 kts | 183° |
| 2026-05-05 17:39 | 41.98703 | -87.89040 | 673 ft | 24 kts | 176° |
| 2026-05-05 17:39 | 41.98567 | -87.88955 | 672 ft | 19 kts | 126° |
| 2026-05-05 17:39 | 41.98446 | -87.88919 | 667 ft | 22 kts | 180° |
| 2026-05-05 17:40 | 41.98288 | -87.88919 | 670 ft | 15 kts | 181° |
| 2026-05-05 17:40 | 41.98213 | -87.88950 | 672 ft | 11 kts | 217° |
| 2026-05-05 17:40 | 41.98156 | -87.89021 | 672 ft | 12 kts | 228° |
| 2026-05-05 17:40 | 41.98103 | -87.89119 | 672 ft | 14 kts | 225° |
| 2026-05-05 17:41 | 41.98049 | -87.89221 | 673 ft | 12 kts | 277° |
| 2026-05-05 17:41 | 41.98109 | -87.89242 | 673 ft | 10 kts | 43° |
| 2026-05-05 17:41 | 41.98176 | -87.89212 | 672 ft | 12 kts | 336° |
| 2026-05-05 17:41 | 41.98248 | -87.89285 | 672 ft | 14 kts | 320° |
| 2026-05-05 17:42 | 41.98291 | -87.89407 | 672 ft | 16 kts | 269° |
| 2026-05-05 17:42 | 41.98291 | -87.89564 | 672 ft | 18 kts | 270° |
| 2026-05-05 17:42 | 41.98289 | -87.89735 | 672 ft | 19 kts | 266° |
| 2026-05-05 17:42 | 41.98291 | -87.89914 | 672 ft | 20 kts | 268° |
| 2026-05-05 17:43 | 41.98289 | -87.90101 | 671 ft | 20 kts | 272° |
| 2026-05-05 17:43 | 41.98289 | -87.90292 | 671 ft | 20 kts | 271° |
| 2026-05-05 17:43 | 41.98289 | -87.90456 | 671 ft | 18 kts | 269° |
| 2026-05-05 17:43 | 41.98289 | -87.90639 | 670 ft | 20 kts | 266° |
| 2026-05-05 17:44 | 41.98245 | -87.90793 | 671 ft | 15 kts | 194° |
| 2026-05-05 17:44 | 41.98138 | -87.90780 | 673 ft | 16 kts | 176° |
| 2026-05-05 17:44 | 41.98083 | -87.90765 | 673 ft | 7 kts | 169° |
| 2026-05-05 17:44 | 41.98055 | -87.90742 | 673 ft | 3 kts | 108° |
| 2026-05-05 17:45 | 41.98049 | -87.90721 | 673 ft | 2 kts | 114° |
| 2026-05-05 17:45 | 41.98047 | -87.90714 | 673 ft | 0 kts | 112° |
| 2026-05-05 17:45 | 41.98045 | -87.90708 | 673 ft | 2 kts | 111° |
| 2026-05-05 17:46 | 41.98044 | -87.90706 | 673 ft | 0 kts | 111° |